<?xml version='1.0' encoding='UTF-8'?><gpx version="1.1" creator="JPX - https://github.com/jenetics/jpx" xmlns="http://www.topografix.com/GPX/1/1"><trk><trkseg><trkpt lat="43.8110181" lon="11.0492632"><ele>45.0</ele><time>2026-04-26T13:19:20.074Z</time></trkpt><trkpt lat="43.8110828" lon="11.0492833"><ele>45.0</ele><time>2026-04-26T13:19:27.033Z</time></trkpt><trkpt lat="43.8111115" lon="11.0493679"><ele>45.0</ele><time>2026-04-26T13:19:33.049Z</time></trkpt><trkpt lat="43.8111325" lon="11.0494588"><ele>45.0</ele><time>2026-04-26T13:19:40.033Z</time></trkpt><trkpt lat="43.8111465" lon="11.0495557"><ele>45.0</ele><time>2026-04-26T13:19:46.033Z</time></trkpt><trkpt lat="43.8111654" lon="11.049645"><ele>45.0</ele><time>2026-04-26T13:19:51.731Z</time></trkpt><trkpt lat="43.811195" lon="11.0497293"><ele>45.0</ele><time>2026-04-26T13:19:57.586Z</time></trkpt><trkpt lat="43.8112404" lon="11.0498004"><ele>45.0</ele><time>2026-04-26T13:20:04.405Z</time></trkpt><trkpt lat="43.811311" lon="11.0498187"><ele>45.0</ele><time>2026-04-26T13:20:11.033Z</time></trkpt><trkpt lat="43.811377" lon="11.0497792"><ele>45.0</ele><time>2026-04-26T13:20:17.069Z</time></trkpt><trkpt lat="43.8114274" lon="11.0497246"><ele>45.0</ele><time>2026-04-26T13:20:23.03Z</time></trkpt><trkpt lat="43.81149" lon="11.0497386"><ele>45.0</ele><time>2026-04-26T13:20:28.087Z</time></trkpt><trkpt lat="43.8115612" lon="11.0497237"><ele>45.0</ele><time>2026-04-26T13:20:34.032Z</time></trkpt><trkpt lat="43.8116234" lon="11.0497475"><ele>45.0</ele><time>2026-04-26T13:20:39.05Z</time></trkpt><trkpt lat="43.8116789" lon="11.0498095"><ele>45.0</ele><time>2026-04-26T13:20:45.033Z</time></trkpt><trkpt lat="43.8117223" lon="11.0498815"><ele>45.0</ele><time>2026-04-26T13:20:50.036Z</time></trkpt><trkpt lat="43.811772" lon="11.0499595"><ele>45.0</ele><time>2026-04-26T13:20:56.033Z</time></trkpt><trkpt lat="43.8118003" lon="11.0500515"><ele>45.0</ele><time>2026-04-26T13:21:03.033Z</time></trkpt><trkpt lat="43.8118357" lon="11.0501315"><ele>45.0</ele><time>2026-04-26T13:21:09.033Z</time></trkpt><trkpt lat="43.8118894" lon="11.0501985"><ele>45.0</ele><time>2026-04-26T13:21:16.05Z</time></trkpt><trkpt lat="43.8119306" lon="11.0502653"><ele>45.0</ele><time>2026-04-26T13:21:21.033Z</time></trkpt><trkpt lat="43.8119696" lon="11.0503348"><ele>44.57142857142857</ele><time>2026-04-26T13:21:26.051Z</time></trkpt><trkpt lat="43.8120096" lon="11.0504104"><ele>44.142857142857146</ele><time>2026-04-26T13:21:32.033Z</time></trkpt><trkpt lat="43.812041" lon="11.0504922"><ele>43.714285714285715</ele><time>2026-04-26T13:21:37.033Z</time></trkpt><trkpt lat="43.8120583" lon="11.0505852"><ele>43.285714285714285</ele><time>2026-04-26T13:21:43.033Z</time></trkpt><trkpt lat="43.8121061" lon="11.0506576"><ele>42.85714285714286</ele><time>2026-04-26T13:21:50.033Z</time></trkpt><trkpt lat="43.8121735" lon="11.0506433"><ele>42.42857142857143</ele><time>2026-04-26T13:21:56.033Z</time></trkpt><trkpt lat="43.812237" lon="11.0506809"><ele>42.0</ele><time>2026-04-26T13:22:02.368Z</time></trkpt><trkpt lat="43.8123037" lon="11.0506913"><ele>42.0</ele><time>2026-04-26T13:22:08.115Z</time></trkpt><trkpt lat="43.8123722" lon="11.0507019"><ele>42.0</ele><time>2026-04-26T13:22:14.103Z</time></trkpt><trkpt lat="43.8124384" lon="11.0507241"><ele>42.0</ele><time>2026-04-26T13:22:20.032Z</time></trkpt><trkpt lat="43.8125039" lon="11.0507825"><ele>42.0</ele><time>2026-04-26T13:22:24.033Z</time></trkpt><trkpt lat="43.8125583" lon="11.0508536"><ele>42.0</ele><time>2026-04-26T13:22:27.048Z</time></trkpt><trkpt lat="43.8125823" lon="11.0509569"><ele>42.0</ele><time>2026-04-26T13:22:30.074Z</time></trkpt><trkpt lat="43.8126076" lon="11.0510449"><ele>42.0</ele><time>2026-04-26T13:22:33.109Z</time></trkpt><trkpt lat="43.8125795" lon="11.0511569"><ele>42.0</ele><time>2026-04-26T13:22:38.873Z</time></trkpt><trkpt lat="43.8125664" lon="11.0512515"><ele>42.0</ele><time>2026-04-26T13:22:42.907Z</time></trkpt><trkpt lat="43.8125597" lon="11.0513438"><ele>42.0</ele><time>2026-04-26T13:22:47.71Z</time></trkpt><trkpt lat="43.8125715" lon="11.0514347"><ele>42.0</ele><time>2026-04-26T13:22:53.045Z</time></trkpt><trkpt lat="43.8126096" lon="11.0515185"><ele>42.0</ele><time>2026-04-26T13:22:58.033Z</time></trkpt><trkpt lat="43.8126573" lon="11.0515906"><ele>42.0</ele><time>2026-04-26T13:23:03.112Z</time></trkpt><trkpt lat="43.8127184" lon="11.0516462"><ele>42.0</ele><time>2026-04-26T13:23:08.032Z</time></trkpt><trkpt lat="43.8127711" lon="11.0517036"><ele>42.0</ele><time>2026-04-26T13:23:13.033Z</time></trkpt><trkpt lat="43.8128133" lon="11.0517904"><ele>42.0</ele><time>2026-04-26T13:23:17.929Z</time></trkpt><trkpt lat="43.8128544" lon="11.0518654"><ele>42.0</ele><time>2026-04-26T13:23:23.508Z</time></trkpt><trkpt lat="43.8128997" lon="11.0519382"><ele>42.0</ele><time>2026-04-26T13:23:28.189Z</time></trkpt><trkpt lat="43.8129514" lon="11.0520049"><ele>42.0</ele><time>2026-04-26T13:23:33.795Z</time></trkpt><trkpt lat="43.8129873" lon="11.0520884"><ele>42.0</ele><time>2026-04-26T13:23:39.413Z</time></trkpt><trkpt lat="43.8130252" lon="11.052168"><ele>42.0</ele><time>2026-04-26T13:23:44.934Z</time></trkpt><trkpt lat="43.8130765" lon="11.0522447"><ele>42.0</ele><time>2026-04-26T13:23:51.049Z</time></trkpt><trkpt lat="43.8131044" lon="11.0523382"><ele>42.0</ele><time>2026-04-26T13:23:56.908Z</time></trkpt><trkpt lat="43.8130819" lon="11.0524256"><ele>42.0</ele><time>2026-04-26T13:24:02.1Z</time></trkpt><trkpt lat="43.8130943" lon="11.0525311"><ele>42.0</ele><time>2026-04-26T13:24:08.106Z</time></trkpt><trkpt lat="43.8131108" lon="11.0526299"><ele>42.0</ele><time>2026-04-26T13:24:14.715Z</time></trkpt><trkpt lat="43.8131316" lon="11.0527326"><ele>42.0</ele><time>2026-04-26T13:24:20.833Z</time></trkpt><trkpt lat="43.8131878" lon="11.0527897"><ele>42.0</ele><time>2026-04-26T13:24:25.912Z</time></trkpt><trkpt lat="43.813252" lon="11.05278"><ele>42.0</ele><time>2026-04-26T13:24:29.967Z</time></trkpt><trkpt lat="43.8132999" lon="11.0528521"><ele>42.0</ele><time>2026-04-26T13:24:35.033Z</time></trkpt><trkpt lat="43.8133274" lon="11.0529425"><ele>42.0</ele><time>2026-04-26T13:24:39.771Z</time></trkpt><trkpt lat="43.8133357" lon="11.053038"><ele>42.0</ele><time>2026-04-26T13:24:44.988Z</time></trkpt><trkpt lat="43.8133666" lon="11.0531368"><ele>42.0</ele><time>2026-04-26T13:24:49.894Z</time></trkpt><trkpt lat="43.8134095" lon="11.0532065"><ele>42.0</ele><time>2026-04-26T13:24:54.053Z</time></trkpt><trkpt lat="43.8134497" lon="11.0532959"><ele>42.0</ele><time>2026-04-26T13:24:59.033Z</time></trkpt><trkpt lat="43.8134857" lon="11.053387"><ele>42.142857142857146</ele><time>2026-04-26T13:25:04.033Z</time></trkpt><trkpt lat="43.8135091" lon="11.0534828"><ele>42.285714285714285</ele><time>2026-04-26T13:25:08.752Z</time></trkpt><trkpt lat="43.813535" lon="11.0535637"><ele>42.42857142857143</ele><time>2026-04-26T13:25:15.033Z</time></trkpt><trkpt lat="43.8135503" lon="11.0536704"><ele>42.57142857142857</ele><time>2026-04-26T13:25:20.11Z</time></trkpt><trkpt lat="43.8135604" lon="11.0537633"><ele>42.714285714285715</ele><time>2026-04-26T13:25:25.077Z</time></trkpt><trkpt lat="43.8135726" lon="11.05385"><ele>42.85714285714286</ele><time>2026-04-26T13:25:29.993Z</time></trkpt><trkpt lat="43.813547" lon="11.0539463"><ele>43.0</ele><time>2026-04-26T13:25:35.047Z</time></trkpt><trkpt lat="43.8135078" lon="11.0540275"><ele>42.714285714285715</ele><time>2026-04-26T13:25:40.089Z</time></trkpt><trkpt lat="43.8135367" lon="11.0541248"><ele>42.42857142857143</ele><time>2026-04-26T13:25:47.038Z</time></trkpt><trkpt lat="43.8136104" lon="11.0541445"><ele>42.14285714285714</ele><time>2026-04-26T13:25:53.088Z</time></trkpt><trkpt lat="43.8136748" lon="11.0542007"><ele>41.85714285714286</ele><time>2026-04-26T13:25:58.03Z</time></trkpt><trkpt lat="43.8137387" lon="11.054244"><ele>41.57142857142857</ele><time>2026-04-26T13:26:03.031Z</time></trkpt><trkpt lat="43.8138028" lon="11.0542894"><ele>41.285714285714285</ele><time>2026-04-26T13:26:08.015Z</time></trkpt><trkpt lat="43.8138612" lon="11.0543246"><ele>41.0</ele><time>2026-04-26T13:26:15.048Z</time></trkpt><trkpt lat="43.8139267" lon="11.0543849"><ele>40.99999999999999</ele><time>2026-04-26T13:26:22.105Z</time></trkpt><trkpt lat="43.8139868" lon="11.0544328"><ele>41.0</ele><time>2026-04-26T13:26:26.948Z</time></trkpt><trkpt lat="43.814042" lon="11.0544922"><ele>41.0</ele><time>2026-04-26T13:26:32.073Z</time></trkpt><trkpt lat="43.814097" lon="11.0545583"><ele>41.0</ele><time>2026-04-26T13:26:38.033Z</time></trkpt><trkpt lat="43.8141599" lon="11.0546095"><ele>41.0</ele><time>2026-04-26T13:26:43.048Z</time></trkpt><trkpt lat="43.814217" lon="11.0546897"><ele>40.99999999999999</ele><time>2026-04-26T13:26:49.112Z</time></trkpt><trkpt lat="43.8142641" lon="11.0547481"><ele>41.0</ele><time>2026-04-26T13:26:54.033Z</time></trkpt><trkpt lat="43.814321" lon="11.0548133"><ele>40.99999999999999</ele><time>2026-04-26T13:27:00.033Z</time></trkpt><trkpt lat="43.8143728" lon="11.0548754"><ele>41.0</ele><time>2026-04-26T13:27:05.032Z</time></trkpt><trkpt lat="43.8144104" lon="11.0549538"><ele>41.0</ele><time>2026-04-26T13:27:15.086Z</time></trkpt><trkpt lat="43.8144672" lon="11.054997"><ele>41.0</ele><time>2026-04-26T13:27:18.112Z</time></trkpt><trkpt lat="43.8145338" lon="11.0550177"><ele>41.0</ele><time>2026-04-26T13:27:24.052Z</time></trkpt><trkpt lat="43.8145759" lon="11.0551081"><ele>40.99999999999999</ele><time>2026-04-26T13:27:27.077Z</time></trkpt><trkpt lat="43.8146328" lon="11.0551741"><ele>41.0</ele><time>2026-04-26T13:27:32.033Z</time></trkpt><trkpt lat="43.8146758" lon="11.0552439"><ele>40.99999999999999</ele><time>2026-04-26T13:27:36.041Z</time></trkpt><trkpt lat="43.8147172" lon="11.055319"><ele>41.0</ele><time>2026-04-26T13:27:41.081Z</time></trkpt><trkpt lat="43.8147477" lon="11.0554022"><ele>41.0</ele><time>2026-04-26T13:27:46.033Z</time></trkpt><trkpt lat="43.8148067" lon="11.0554773"><ele>41.0</ele><time>2026-04-26T13:27:54.991Z</time></trkpt><trkpt lat="43.8148613" lon="11.0555475"><ele>41.0</ele><time>2026-04-26T13:28:00.033Z</time></trkpt><trkpt lat="43.8149216" lon="11.0555961"><ele>40.99999999999999</ele><time>2026-04-26T13:28:05.046Z</time></trkpt><trkpt lat="43.814982" lon="11.0556568"><ele>41.0</ele><time>2026-04-26T13:28:11.095Z</time></trkpt><trkpt lat="43.8150428" lon="11.0556999"><ele>40.99999999999999</ele><time>2026-04-26T13:28:15.916Z</time></trkpt><trkpt lat="43.8150831" lon="11.0557756"><ele>41.0</ele><time>2026-04-26T13:28:22.111Z</time></trkpt><trkpt lat="43.8151282" lon="11.0558369"><ele>41.0</ele><time>2026-04-26T13:28:28.032Z</time></trkpt><trkpt lat="43.8151728" lon="11.0559274"><ele>41.0</ele><time>2026-04-26T13:28:33.112Z</time></trkpt><trkpt lat="43.8152145" lon="11.0560023"><ele>41.0</ele><time>2026-04-26T13:28:38.115Z</time></trkpt><trkpt lat="43.8152367" lon="11.0560902"><ele>40.99999999999999</ele><time>2026-04-26T13:28:43.033Z</time></trkpt><trkpt lat="43.8152574" lon="11.0561733"><ele>41.0</ele><time>2026-04-26T13:28:47.99Z</time></trkpt><trkpt lat="43.8152998" lon="11.0562405"><ele>41.285714285714285</ele><time>2026-04-26T13:28:53.03Z</time></trkpt><trkpt lat="43.8153305" lon="11.0563191"><ele>41.57142857142857</ele><time>2026-04-26T13:28:58.033Z</time></trkpt><trkpt lat="43.8153708" lon="11.0563994"><ele>41.85714285714286</ele><time>2026-04-26T13:29:03.066Z</time></trkpt><trkpt lat="43.8154095" lon="11.0564759"><ele>42.14285714285714</ele><time>2026-04-26T13:29:08.027Z</time></trkpt><trkpt lat="43.8154693" lon="11.0565232"><ele>42.42857142857143</ele><time>2026-04-26T13:29:14.043Z</time></trkpt><trkpt lat="43.8155201" lon="11.0565894"><ele>42.714285714285715</ele><time>2026-04-26T13:29:18.991Z</time></trkpt><trkpt lat="43.8155653" lon="11.0566581"><ele>43.0</ele><time>2026-04-26T13:29:24.033Z</time></trkpt><trkpt lat="43.8156086" lon="11.0567221"><ele>43.00000000000001</ele><time>2026-04-26T13:29:29.026Z</time></trkpt><trkpt lat="43.8156595" lon="11.0567994"><ele>43.0</ele><time>2026-04-26T13:29:34.895Z</time></trkpt><trkpt lat="43.8156915" lon="11.0568864"><ele>43.0</ele><time>2026-04-26T13:29:40.033Z</time></trkpt><trkpt lat="43.8157151" lon="11.0569844"><ele>43.0</ele><time>2026-04-26T13:29:44.978Z</time></trkpt><trkpt lat="43.8157629" lon="11.0570511"><ele>43.0</ele><time>2026-04-26T13:29:51.032Z</time></trkpt><trkpt lat="43.8158117" lon="11.0571213"><ele>43.00000000000001</ele><time>2026-04-26T13:29:56.065Z</time></trkpt><trkpt lat="43.8158492" lon="11.0572076"><ele>43.0</ele><time>2026-04-26T13:30:01.032Z</time></trkpt><trkpt lat="43.8158402" lon="11.0572955"><ele>43.00000000000001</ele><time>2026-04-26T13:30:05.929Z</time></trkpt><trkpt lat="43.815791" lon="11.0573782"><ele>43.0</ele><time>2026-04-26T13:30:12.029Z</time></trkpt><trkpt lat="43.8157815" lon="11.0574744"><ele>43.0</ele><time>2026-04-26T13:30:18.061Z</time></trkpt><trkpt lat="43.8158315" lon="11.0575295"><ele>43.0</ele><time>2026-04-26T13:30:23.033Z</time></trkpt><trkpt lat="43.8158836" lon="11.0575949"><ele>43.0</ele><time>2026-04-26T13:30:27.032Z</time></trkpt><trkpt lat="43.8159232" lon="11.0576768"><ele>43.00000000000001</ele><time>2026-04-26T13:30:32.033Z</time></trkpt><trkpt lat="43.8159887" lon="11.0577203"><ele>43.0</ele><time>2026-04-26T13:30:36.831Z</time></trkpt><trkpt lat="43.8160472" lon="11.0577796"><ele>43.57142857142858</ele><time>2026-04-26T13:30:43.054Z</time></trkpt><trkpt lat="43.816097" lon="11.0578543"><ele>44.142857142857146</ele><time>2026-04-26T13:30:48.113Z</time></trkpt><trkpt lat="43.8161402" lon="11.0579189"><ele>44.714285714285715</ele><time>2026-04-26T13:30:54.033Z</time></trkpt><trkpt lat="43.8162086" lon="11.0579831"><ele>45.28571428571429</ele><time>2026-04-26T13:30:59.07Z</time></trkpt><trkpt lat="43.8162589" lon="11.0580494"><ele>45.857142857142854</ele><time>2026-04-26T13:31:04.033Z</time></trkpt><trkpt lat="43.8163088" lon="11.0581118"><ele>46.42857142857143</ele><time>2026-04-26T13:31:08.033Z</time></trkpt><trkpt lat="43.8163539" lon="11.0581781"><ele>47.0</ele><time>2026-04-26T13:31:13.047Z</time></trkpt><trkpt lat="43.8164076" lon="11.0582377"><ele>47.0</ele><time>2026-04-26T13:31:19.033Z</time></trkpt><trkpt lat="43.8164613" lon="11.0582838"><ele>47.0</ele><time>2026-04-26T13:31:24.044Z</time></trkpt><trkpt lat="43.8165116" lon="11.0583582"><ele>47.0</ele><time>2026-04-26T13:31:29.832Z</time></trkpt><trkpt lat="43.8165518" lon="11.0584434"><ele>47.0</ele><time>2026-04-26T13:31:36.117Z</time></trkpt><trkpt lat="43.8165295" lon="11.0585332"><ele>47.0</ele><time>2026-04-26T13:31:41.074Z</time></trkpt><trkpt lat="43.8165267" lon="11.0586288"><ele>47.0</ele><time>2026-04-26T13:31:46.106Z</time></trkpt><trkpt lat="43.8165171" lon="11.0587333"><ele>47.0</ele><time>2026-04-26T13:31:51.115Z</time></trkpt><trkpt lat="43.8165792" lon="11.0587842"><ele>47.0</ele><time>2026-04-26T13:31:58.033Z</time></trkpt><trkpt lat="43.816647" lon="11.0587651"><ele>47.0</ele><time>2026-04-26T13:32:03.008Z</time></trkpt><trkpt lat="43.8167114" lon="11.0587817"><ele>47.0</ele><time>2026-04-26T13:32:08.033Z</time></trkpt><trkpt lat="43.8167781" lon="11.0587955"><ele>47.0</ele><time>2026-04-26T13:32:13.033Z</time></trkpt><trkpt lat="43.816847" lon="11.0588004"><ele>47.0</ele><time>2026-04-26T13:32:17.986Z</time></trkpt><trkpt lat="43.8169178" lon="11.058801"><ele>47.0</ele><time>2026-04-26T13:32:24.033Z</time></trkpt><trkpt lat="43.8169867" lon="11.0588366"><ele>47.0</ele><time>2026-04-26T13:32:30.045Z</time></trkpt><trkpt lat="43.8170491" lon="11.058894"><ele>47.0</ele><time>2026-04-26T13:32:35.033Z</time></trkpt><trkpt lat="43.8171198" lon="11.0589306"><ele>47.0</ele><time>2026-04-26T13:32:40.95Z</time></trkpt><trkpt lat="43.8171841" lon="11.0589535"><ele>47.0</ele><time>2026-04-26T13:32:46.033Z</time></trkpt><trkpt lat="43.8172489" lon="11.0589933"><ele>47.0</ele><time>2026-04-26T13:32:51.033Z</time></trkpt><trkpt lat="43.8173067" lon="11.0590372"><ele>47.0</ele><time>2026-04-26T13:32:56.08Z</time></trkpt><trkpt lat="43.8173758" lon="11.0590202"><ele>47.0</ele><time>2026-04-26T13:33:01.033Z</time></trkpt><trkpt lat="43.8174796" lon="11.0590339"><ele>47.0</ele><time>2026-04-26T13:33:07.068Z</time></trkpt><trkpt lat="43.8175418" lon="11.0590582"><ele>47.0</ele><time>2026-04-26T13:33:11.033Z</time></trkpt><trkpt lat="43.8176068" lon="11.0590898"><ele>47.0</ele><time>2026-04-26T13:33:16.036Z</time></trkpt><trkpt lat="43.8176617" lon="11.0591442"><ele>47.0</ele><time>2026-04-26T13:33:21.079Z</time></trkpt><trkpt lat="43.8177255" lon="11.0591456"><ele>47.0</ele><time>2026-04-26T13:33:27.028Z</time></trkpt><trkpt lat="43.8177963" lon="11.0591396"><ele>47.0</ele><time>2026-04-26T13:33:32.058Z</time></trkpt><trkpt lat="43.8178615" lon="11.0591349"><ele>47.0</ele><time>2026-04-26T13:33:36.111Z</time></trkpt><trkpt lat="43.8179378" lon="11.0591105"><ele>46.714285714285715</ele><time>2026-04-26T13:33:41.033Z</time></trkpt><trkpt lat="43.8180002" lon="11.0590644"><ele>46.42857142857143</ele><time>2026-04-26T13:33:45.053Z</time></trkpt><trkpt lat="43.8180693" lon="11.0590303"><ele>46.14285714285714</ele><time>2026-04-26T13:33:50.008Z</time></trkpt><trkpt lat="43.8181366" lon="11.0589909"><ele>45.85714285714286</ele><time>2026-04-26T13:33:55.032Z</time></trkpt><trkpt lat="43.8182067" lon="11.0589556"><ele>45.57142857142858</ele><time>2026-04-26T13:34:00.063Z</time></trkpt><trkpt lat="43.8182728" lon="11.058947"><ele>45.285714285714285</ele><time>2026-04-26T13:34:05.033Z</time></trkpt><trkpt lat="43.8183446" lon="11.0589465"><ele>45.0</ele><time>2026-04-26T13:34:10.033Z</time></trkpt><trkpt lat="43.8184178" lon="11.0589621"><ele>44.714285714285715</ele><time>2026-04-26T13:34:15.071Z</time></trkpt><trkpt lat="43.818486" lon="11.0589771"><ele>44.42857142857143</ele><time>2026-04-26T13:34:20.033Z</time></trkpt><trkpt lat="43.8185512" lon="11.0589951"><ele>44.142857142857146</ele><time>2026-04-26T13:34:25.028Z</time></trkpt><trkpt lat="43.818616" lon="11.0590326"><ele>43.85714285714286</ele><time>2026-04-26T13:34:31.087Z</time></trkpt><trkpt lat="43.8186773" lon="11.0590535"><ele>43.57142857142857</ele><time>2026-04-26T13:34:36.033Z</time></trkpt><trkpt lat="43.8187392" lon="11.059092"><ele>43.28571428571429</ele><time>2026-04-26T13:34:41.114Z</time></trkpt><trkpt lat="43.8188013" lon="11.0591218"><ele>43.0</ele><time>2026-04-26T13:34:45.954Z</time></trkpt><trkpt lat="43.8188685" lon="11.0591427"><ele>43.00000000000001</ele><time>2026-04-26T13:34:50.987Z</time></trkpt><trkpt lat="43.8189326" lon="11.0591754"><ele>43.0</ele><time>2026-04-26T13:34:55.851Z</time></trkpt><trkpt lat="43.8189987" lon="11.0592023"><ele>43.0</ele><time>2026-04-26T13:35:01.033Z</time></trkpt><trkpt lat="43.8190466" lon="11.0591304"><ele>43.0</ele><time>2026-04-26T13:35:07.041Z</time></trkpt><trkpt lat="43.8190631" lon="11.059042"><ele>43.0</ele><time>2026-04-26T13:35:11.053Z</time></trkpt><trkpt lat="43.8191053" lon="11.0589717"><ele>43.00000000000001</ele><time>2026-04-26T13:35:15.112Z</time></trkpt><trkpt lat="43.8191624" lon="11.0589153"><ele>43.0</ele><time>2026-04-26T13:35:20.033Z</time></trkpt><trkpt lat="43.8192123" lon="11.0588394"><ele>43.00000000000001</ele><time>2026-04-26T13:35:25.034Z</time></trkpt><trkpt lat="43.8192521" lon="11.0587622"><ele>43.0</ele><time>2026-04-26T13:35:29.993Z</time></trkpt><trkpt lat="43.8192897" lon="11.05869"><ele>43.0</ele><time>2026-04-26T13:35:35.039Z</time></trkpt><trkpt lat="43.8193327" lon="11.0586186"><ele>43.0</ele><time>2026-04-26T13:35:40.078Z</time></trkpt><trkpt lat="43.8193804" lon="11.0585388"><ele>43.0</ele><time>2026-04-26T13:35:45.116Z</time></trkpt><trkpt lat="43.8194251" lon="11.0584539"><ele>43.00000000000001</ele><time>2026-04-26T13:35:50.926Z</time></trkpt><trkpt lat="43.8194545" lon="11.0583695"><ele>43.0</ele><time>2026-04-26T13:35:56.033Z</time></trkpt><trkpt lat="43.819489" lon="11.0582869"><ele>41.85714285714286</ele><time>2026-04-26T13:36:01.033Z</time></trkpt><trkpt lat="43.819524" lon="11.0582133"><ele>40.714285714285715</ele><time>2026-04-26T13:36:06.059Z</time></trkpt><trkpt lat="43.8195689" lon="11.0581393"><ele>39.57142857142857</ele><time>2026-04-26T13:36:12.033Z</time></trkpt><trkpt lat="43.8196175" lon="11.0580715"><ele>38.42857142857143</ele><time>2026-04-26T13:36:17.109Z</time></trkpt><trkpt lat="43.8196461" lon="11.0579931"><ele>37.285714285714285</ele><time>2026-04-26T13:36:21.971Z</time></trkpt><trkpt lat="43.8196859" lon="11.0579205"><ele>36.142857142857146</ele><time>2026-04-26T13:36:27.033Z</time></trkpt><trkpt lat="43.8197282" lon="11.0578431"><ele>35.0</ele><time>2026-04-26T13:36:32.035Z</time></trkpt><trkpt lat="43.8197696" lon="11.0577665"><ele>35.0</ele><time>2026-04-26T13:36:37.072Z</time></trkpt><trkpt lat="43.8198055" lon="11.0576838"><ele>35.0</ele><time>2026-04-26T13:36:42.033Z</time></trkpt><trkpt lat="43.8198563" lon="11.0576158"><ele>35.0</ele><time>2026-04-26T13:36:47.107Z</time></trkpt><trkpt lat="43.8199006" lon="11.0575422"><ele>35.0</ele><time>2026-04-26T13:36:52.931Z</time></trkpt><trkpt lat="43.8199345" lon="11.0574669"><ele>35.0</ele><time>2026-04-26T13:36:58.032Z</time></trkpt><trkpt lat="43.8199704" lon="11.0573951"><ele>35.0</ele><time>2026-04-26T13:37:03.043Z</time></trkpt><trkpt lat="43.8200058" lon="11.0573187"><ele>35.0</ele><time>2026-04-26T13:37:08.08Z</time></trkpt><trkpt lat="43.8200431" lon="11.0572452"><ele>35.0</ele><time>2026-04-26T13:37:14.048Z</time></trkpt><trkpt lat="43.8200847" lon="11.0571662"><ele>35.0</ele><time>2026-04-26T13:37:19.051Z</time></trkpt><trkpt lat="43.8201253" lon="11.057096"><ele>35.0</ele><time>2026-04-26T13:37:24.09Z</time></trkpt><trkpt lat="43.8201588" lon="11.0570197"><ele>35.0</ele><time>2026-04-26T13:37:29.033Z</time></trkpt><trkpt lat="43.820193" lon="11.0569332"><ele>35.0</ele><time>2026-04-26T13:37:34.109Z</time></trkpt><trkpt lat="43.8202317" lon="11.0568548"><ele>35.0</ele><time>2026-04-26T13:37:39.116Z</time></trkpt><trkpt lat="43.8202753" lon="11.056774"><ele>35.0</ele><time>2026-04-26T13:37:44.027Z</time></trkpt><trkpt lat="43.8203115" lon="11.0566817"><ele>34.857142857142854</ele><time>2026-04-26T13:37:50.075Z</time></trkpt><trkpt lat="43.8203244" lon="11.0565962"><ele>34.714285714285715</ele><time>2026-04-26T13:37:54.033Z</time></trkpt><trkpt lat="43.8203556" lon="11.0565202"><ele>34.57142857142857</ele><time>2026-04-26T13:37:58.053Z</time></trkpt><trkpt lat="43.8204019" lon="11.0564483"><ele>34.42857142857143</ele><time>2026-04-26T13:38:03.033Z</time></trkpt><trkpt lat="43.8204295" lon="11.0563673"><ele>34.285714285714285</ele><time>2026-04-26T13:38:08.035Z</time></trkpt><trkpt lat="43.8204598" lon="11.056282"><ele>34.14285714285714</ele><time>2026-04-26T13:38:13.033Z</time></trkpt><trkpt lat="43.8205089" lon="11.0562153"><ele>34.0</ele><time>2026-04-26T13:38:18.033Z</time></trkpt><trkpt lat="43.8205493" lon="11.056147"><ele>33.99999999999999</ele><time>2026-04-26T13:38:23.033Z</time></trkpt><trkpt lat="43.8205834" lon="11.0560542"><ele>34.0</ele><time>2026-04-26T13:38:28.033Z</time></trkpt><trkpt lat="43.8206281" lon="11.0559904"><ele>34.0</ele><time>2026-04-26T13:38:34.075Z</time></trkpt><trkpt lat="43.8206928" lon="11.05594"><ele>34.0</ele><time>2026-04-26T13:38:39.033Z</time></trkpt><trkpt lat="43.8207384" lon="11.0558768"><ele>34.0</ele><time>2026-04-26T13:38:44.033Z</time></trkpt><trkpt lat="43.8207824" lon="11.0558012"><ele>33.99999999999999</ele><time>2026-04-26T13:38:50.033Z</time></trkpt><trkpt lat="43.8208248" lon="11.0557165"><ele>34.0</ele><time>2026-04-26T13:38:56.04Z</time></trkpt><trkpt lat="43.8208692" lon="11.0556479"><ele>33.99999999999999</ele><time>2026-04-26T13:39:00.992Z</time></trkpt><trkpt lat="43.8209107" lon="11.0555744"><ele>34.0</ele><time>2026-04-26T13:39:06.033Z</time></trkpt><trkpt lat="43.8209461" lon="11.0554974"><ele>34.0</ele><time>2026-04-26T13:39:10.952Z</time></trkpt><trkpt lat="43.8209903" lon="11.0554325"><ele>34.0</ele><time>2026-04-26T13:39:16.033Z</time></trkpt><trkpt lat="43.821028" lon="11.055362"><ele>34.0</ele><time>2026-04-26T13:39:21.033Z</time></trkpt><trkpt lat="43.8210597" lon="11.055278"><ele>33.99999999999999</ele><time>2026-04-26T13:39:26.07Z</time></trkpt><trkpt lat="43.8210897" lon="11.0551982"><ele>34.0</ele><time>2026-04-26T13:39:30.835Z</time></trkpt><trkpt lat="43.8211366" lon="11.0551285"><ele>33.99999999999999</ele><time>2026-04-26T13:39:37.051Z</time></trkpt><trkpt lat="43.8211793" lon="11.0550573"><ele>34.0</ele><time>2026-04-26T13:39:42.093Z</time></trkpt><trkpt lat="43.8212257" lon="11.0549824"><ele>34.0</ele><time>2026-04-26T13:39:47.033Z</time></trkpt><trkpt lat="43.8212719" lon="11.0549152"><ele>34.0</ele><time>2026-04-26T13:39:52.064Z</time></trkpt><trkpt lat="43.8213123" lon="11.0548434"><ele>34.0</ele><time>2026-04-26T13:39:57.033Z</time></trkpt><trkpt lat="43.8213521" lon="11.054775"><ele>33.99999999999999</ele><time>2026-04-26T13:40:02.036Z</time></trkpt><trkpt lat="43.8213924" lon="11.0547062"><ele>34.0</ele><time>2026-04-26T13:40:07.077Z</time></trkpt><trkpt lat="43.8214322" lon="11.0546356"><ele>33.99999999999999</ele><time>2026-04-26T13:40:12.033Z</time></trkpt><trkpt lat="43.821485" lon="11.0545787"><ele>34.0</ele><time>2026-04-26T13:40:17.713Z</time></trkpt><trkpt lat="43.8215115" lon="11.0544881"><ele>34.0</ele><time>2026-04-26T13:40:23.027Z</time></trkpt><trkpt lat="43.8215394" lon="11.0543985"><ele>34.0</ele><time>2026-04-26T13:40:28.042Z</time></trkpt><trkpt lat="43.8215793" lon="11.0543295"><ele>34.0</ele><time>2026-04-26T13:40:33.101Z</time></trkpt><trkpt lat="43.8215809" lon="11.0542311"><ele>33.99999999999999</ele><time>2026-04-26T13:40:39.039Z</time></trkpt><trkpt lat="43.8216199" lon="11.0541445"><ele>34.0</ele><time>2026-04-26T13:40:44.033Z</time></trkpt><trkpt lat="43.821668" lon="11.0540781"><ele>33.99999999999999</ele><time>2026-04-26T13:40:48.033Z</time></trkpt><trkpt lat="43.8217335" lon="11.0540302"><ele>34.0</ele><time>2026-04-26T13:40:53.05Z</time></trkpt><trkpt lat="43.8217979" lon="11.0539861"><ele>34.0</ele><time>2026-04-26T13:40:58.13Z</time></trkpt><trkpt lat="43.821853" lon="11.0539375"><ele>34.0</ele><time>2026-04-26T13:41:04.035Z</time></trkpt><trkpt lat="43.8218909" lon="11.0538644"><ele>34.0</ele><time>2026-04-26T13:41:09.077Z</time></trkpt><trkpt lat="43.8219332" lon="11.0537928"><ele>33.99999999999999</ele><time>2026-04-26T13:41:14.032Z</time></trkpt><trkpt lat="43.8219756" lon="11.0537181"><ele>34.0</ele><time>2026-04-26T13:41:19.049Z</time></trkpt><trkpt lat="43.8220209" lon="11.0536555"><ele>34.14285714285714</ele><time>2026-04-26T13:41:24.033Z</time></trkpt><trkpt lat="43.8220597" lon="11.053583"><ele>34.285714285714285</ele><time>2026-04-26T13:41:30.035Z</time></trkpt><trkpt lat="43.8221042" lon="11.053504"><ele>34.42857142857143</ele><time>2026-04-26T13:41:36.033Z</time></trkpt><trkpt lat="43.8221275" lon="11.0534092"><ele>34.57142857142857</ele><time>2026-04-26T13:41:41.033Z</time></trkpt><trkpt lat="43.8221646" lon="11.0533277"><ele>34.714285714285715</ele><time>2026-04-26T13:41:45.032Z</time></trkpt><trkpt lat="43.8222163" lon="11.0532705"><ele>34.857142857142854</ele><time>2026-04-26T13:41:50.033Z</time></trkpt><trkpt lat="43.8222714" lon="11.0532069"><ele>35.0</ele><time>2026-04-26T13:41:54.85Z</time></trkpt><trkpt lat="43.8223316" lon="11.0531376"><ele>35.142857142857146</ele><time>2026-04-26T13:42:01.048Z</time></trkpt><trkpt lat="43.8223737" lon="11.0530564"><ele>35.285714285714285</ele><time>2026-04-26T13:42:06.962Z</time></trkpt><trkpt lat="43.8223885" lon="11.0529608"><ele>35.42857142857143</ele><time>2026-04-26T13:42:13.033Z</time></trkpt><trkpt lat="43.8224165" lon="11.0528751"><ele>35.57142857142857</ele><time>2026-04-26T13:42:18.033Z</time></trkpt><trkpt lat="43.8224708" lon="11.0528228"><ele>35.714285714285715</ele><time>2026-04-26T13:42:22.103Z</time></trkpt><trkpt lat="43.8225314" lon="11.0527763"><ele>35.85714285714286</ele><time>2026-04-26T13:42:26.049Z</time></trkpt><trkpt lat="43.8225876" lon="11.0527292"><ele>36.0</ele><time>2026-04-26T13:42:30.06Z</time></trkpt><trkpt lat="43.8226425" lon="11.0526848"><ele>36.00000000000001</ele><time>2026-04-26T13:42:34.095Z</time></trkpt><trkpt lat="43.8227005" lon="11.0526373"><ele>36.0</ele><time>2026-04-26T13:42:39.033Z</time></trkpt><trkpt lat="43.8227463" lon="11.0525665"><ele>36.0</ele><time>2026-04-26T13:42:44.033Z</time></trkpt><trkpt lat="43.8227864" lon="11.0524899"><ele>36.0</ele><time>2026-04-26T13:42:49.103Z</time></trkpt><trkpt lat="43.8228333" lon="11.0524292"><ele>36.0</ele><time>2026-04-26T13:42:54.01Z</time></trkpt><trkpt lat="43.8228775" lon="11.0523667"><ele>36.00000000000001</ele><time>2026-04-26T13:42:58.876Z</time></trkpt><trkpt lat="43.8229193" lon="11.0522909"><ele>36.0</ele><time>2026-04-26T13:43:04.033Z</time></trkpt><trkpt lat="43.8229722" lon="11.0522123"><ele>36.142857142857146</ele><time>2026-04-26T13:43:10.107Z</time></trkpt><trkpt lat="43.8230234" lon="11.0521375"><ele>36.285714285714285</ele><time>2026-04-26T13:43:16.032Z</time></trkpt><trkpt lat="43.8230611" lon="11.0520583"><ele>36.42857142857143</ele><time>2026-04-26T13:43:21.039Z</time></trkpt><trkpt lat="43.8231154" lon="11.0519859"><ele>36.57142857142857</ele><time>2026-04-26T13:43:26.111Z</time></trkpt><trkpt lat="43.8231698" lon="11.0519348"><ele>36.714285714285715</ele><time>2026-04-26T13:43:31.033Z</time></trkpt><trkpt lat="43.82321" lon="11.0518636"><ele>36.85714285714286</ele><time>2026-04-26T13:43:35.795Z</time></trkpt><trkpt lat="43.8232581" lon="11.0517998"><ele>37.0</ele><time>2026-04-26T13:43:41.033Z</time></trkpt><trkpt lat="43.8233097" lon="11.0517454"><ele>37.0</ele><time>2026-04-26T13:43:46.033Z</time></trkpt><trkpt lat="43.8233737" lon="11.0517678"><ele>37.0</ele><time>2026-04-26T13:43:51.073Z</time></trkpt><trkpt lat="43.8234134" lon="11.0518488"><ele>37.0</ele><time>2026-04-26T13:43:56.098Z</time></trkpt><trkpt lat="43.8234435" lon="11.0519334"><ele>37.0</ele><time>2026-04-26T13:44:01.044Z</time></trkpt><trkpt lat="43.8234781" lon="11.0520228"><ele>37.0</ele><time>2026-04-26T13:44:07.111Z</time></trkpt><trkpt lat="43.8235218" lon="11.0520965"><ele>37.0</ele><time>2026-04-26T13:44:13.033Z</time></trkpt><trkpt lat="43.8235686" lon="11.0521776"><ele>37.0</ele><time>2026-04-26T13:44:19.033Z</time></trkpt><trkpt lat="43.8236094" lon="11.0522555"><ele>36.714285714285715</ele><time>2026-04-26T13:44:24.032Z</time></trkpt><trkpt lat="43.8236477" lon="11.0523293"><ele>36.42857142857143</ele><time>2026-04-26T13:44:29.033Z</time></trkpt><trkpt lat="43.8236853" lon="11.0524141"><ele>36.14285714285714</ele><time>2026-04-26T13:44:34.107Z</time></trkpt><trkpt lat="43.8237318" lon="11.0524993"><ele>35.85714285714286</ele><time>2026-04-26T13:44:40.033Z</time></trkpt><trkpt lat="43.8237681" lon="11.0525712"><ele>35.57142857142857</ele><time>2026-04-26T13:44:45.033Z</time></trkpt><trkpt lat="43.8238018" lon="11.0526488"><ele>35.285714285714285</ele><time>2026-04-26T13:44:50.033Z</time></trkpt><trkpt lat="43.8238384" lon="11.0527321"><ele>35.0</ele><time>2026-04-26T13:44:54.992Z</time></trkpt><trkpt lat="43.8238812" lon="11.0528108"><ele>35.0</ele><time>2026-04-26T13:44:59.978Z</time></trkpt><trkpt lat="43.8239416" lon="11.0528449"><ele>35.0</ele><time>2026-04-26T13:45:06.033Z</time></trkpt><trkpt lat="43.8240131" lon="11.0528144"><ele>35.0</ele><time>2026-04-26T13:45:11.058Z</time></trkpt><trkpt lat="43.8240643" lon="11.0527429"><ele>35.0</ele><time>2026-04-26T13:45:16.033Z</time></trkpt><trkpt lat="43.8241139" lon="11.052676"><ele>35.0</ele><time>2026-04-26T13:45:21.033Z</time></trkpt><trkpt lat="43.8241668" lon="11.0526027"><ele>35.0</ele><time>2026-04-26T13:45:26.066Z</time></trkpt><trkpt lat="43.8242212" lon="11.0525431"><ele>35.0</ele><time>2026-04-26T13:45:31.019Z</time></trkpt><trkpt lat="43.8242885" lon="11.0524974"><ele>34.857142857142854</ele><time>2026-04-26T13:45:37.047Z</time></trkpt><trkpt lat="43.8243369" lon="11.0524219"><ele>34.714285714285715</ele><time>2026-04-26T13:45:43.113Z</time></trkpt><trkpt lat="43.8243789" lon="11.0523502"><ele>34.57142857142857</ele><time>2026-04-26T13:45:49.112Z</time></trkpt><trkpt lat="43.8244331" lon="11.052285"><ele>34.42857142857143</ele><time>2026-04-26T13:45:54.113Z</time></trkpt><trkpt lat="43.8244924" lon="11.0522156"><ele>34.285714285714285</ele><time>2026-04-26T13:45:59.113Z</time></trkpt><trkpt lat="43.8245352" lon="11.0521477"><ele>34.14285714285714</ele><time>2026-04-26T13:46:04.112Z</time></trkpt><trkpt lat="43.824579" lon="11.0520722"><ele>34.0</ele><time>2026-04-26T13:46:09.113Z</time></trkpt><trkpt lat="43.8246215" lon="11.0520038"><ele>33.99999999999999</ele><time>2026-04-26T13:46:14.113Z</time></trkpt><trkpt lat="43.8246693" lon="11.0519386"><ele>34.0</ele><time>2026-04-26T13:46:19.113Z</time></trkpt><trkpt lat="43.8247218" lon="11.0518599"><ele>34.0</ele><time>2026-04-26T13:46:24.113Z</time></trkpt><trkpt lat="43.8247727" lon="11.0517868"><ele>34.0</ele><time>2026-04-26T13:46:30.112Z</time></trkpt><trkpt lat="43.8248105" lon="11.0517086"><ele>34.0</ele><time>2026-04-26T13:46:34.113Z</time></trkpt><trkpt lat="43.8248479" lon="11.0516225"><ele>33.99999999999999</ele><time>2026-04-26T13:46:39.113Z</time></trkpt><trkpt lat="43.8248918" lon="11.0515482"><ele>34.0</ele><time>2026-04-26T13:46:45.112Z</time></trkpt><trkpt lat="43.8249457" lon="11.0514761"><ele>34.14285714285714</ele><time>2026-04-26T13:46:50.113Z</time></trkpt><trkpt lat="43.8249897" lon="11.0514103"><ele>34.285714285714285</ele><time>2026-04-26T13:46:55.113Z</time></trkpt><trkpt lat="43.8250384" lon="11.0513508"><ele>34.42857142857143</ele><time>2026-04-26T13:47:00.113Z</time></trkpt><trkpt lat="43.8250845" lon="11.0512849"><ele>34.57142857142857</ele><time>2026-04-26T13:47:05.113Z</time></trkpt><trkpt lat="43.8251362" lon="11.0512118"><ele>34.714285714285715</ele><time>2026-04-26T13:47:10.113Z</time></trkpt><trkpt lat="43.8251901" lon="11.0511401"><ele>34.857142857142854</ele><time>2026-04-26T13:47:15.112Z</time></trkpt><trkpt lat="43.8252323" lon="11.0510654"><ele>35.0</ele><time>2026-04-26T13:47:20.113Z</time></trkpt><trkpt lat="43.825303" lon="11.0509907"><ele>35.166666666666664</ele><time>2026-04-26T13:47:27.113Z</time></trkpt><trkpt lat="43.8253606" lon="11.0509295"><ele>35.33333333333333</ele><time>2026-04-26T13:47:32.113Z</time></trkpt><trkpt lat="43.8254087" lon="11.0508522"><ele>35.5</ele><time>2026-04-26T13:47:37.112Z</time></trkpt><trkpt lat="43.8254577" lon="11.0507956"><ele>35.666666666666664</ele><time>2026-04-26T13:47:42.113Z</time></trkpt><trkpt lat="43.8255348" lon="11.0506942"><ele>35.833333333333336</ele><time>2026-04-26T13:47:49.113Z</time></trkpt><trkpt lat="43.8255918" lon="11.0506182"><ele>36.0</ele><time>2026-04-26T13:47:55.113Z</time></trkpt><trkpt lat="43.8256369" lon="11.0505399"><ele>36.00000000000001</ele><time>2026-04-26T13:48:00.113Z</time></trkpt><trkpt lat="43.8256806" lon="11.0504661"><ele>36.0</ele><time>2026-04-26T13:48:05.112Z</time></trkpt><trkpt lat="43.8257297" lon="11.0503926"><ele>36.0</ele><time>2026-04-26T13:48:11.113Z</time></trkpt><trkpt lat="43.8257847" lon="11.0503126"><ele>36.0</ele><time>2026-04-26T13:48:16.113Z</time></trkpt><trkpt lat="43.8258366" lon="11.0502358"><ele>36.0</ele><time>2026-04-26T13:48:21.113Z</time></trkpt><trkpt lat="43.8258819" lon="11.0501638"><ele>36.00000000000001</ele><time>2026-04-26T13:48:26.113Z</time></trkpt><trkpt lat="43.8259381" lon="11.0500938"><ele>36.0</ele><time>2026-04-26T13:48:31.113Z</time></trkpt><trkpt lat="43.8259971" lon="11.0500292"><ele>36.00000000000001</ele><time>2026-04-26T13:48:37.113Z</time></trkpt><trkpt lat="43.8260405" lon="11.0499572"><ele>36.0</ele><time>2026-04-26T13:48:42.113Z</time></trkpt><trkpt lat="43.8259847" lon="11.050025"><ele>36.0</ele><time>2026-04-26T13:48:49.113Z</time></trkpt><trkpt lat="43.8259293" lon="11.0500833"><ele>36.0</ele><time>2026-04-26T13:48:54.113Z</time></trkpt><trkpt lat="43.8258794" lon="11.0501524"><ele>36.0</ele><time>2026-04-26T13:48:59.113Z</time></trkpt><trkpt lat="43.8258253" lon="11.0502074"><ele>36.00000000000001</ele><time>2026-04-26T13:49:04.113Z</time></trkpt><trkpt lat="43.8257596" lon="11.0503073"><ele>36.0</ele><time>2026-04-26T13:49:11.113Z</time></trkpt><trkpt lat="43.8257089" lon="11.0503709"><ele>36.00000000000001</ele><time>2026-04-26T13:49:16.113Z</time></trkpt><trkpt lat="43.8256624" lon="11.0504365"><ele>36.0</ele><time>2026-04-26T13:49:21.113Z</time></trkpt><trkpt lat="43.8256195" lon="11.0505098"><ele>36.0</ele><time>2026-04-26T13:49:26.113Z</time></trkpt><trkpt lat="43.825574" lon="11.0505709"><ele>36.0</ele><time>2026-04-26T13:49:31.113Z</time></trkpt><trkpt lat="43.8255185" lon="11.050627"><ele>36.0</ele><time>2026-04-26T13:49:36.113Z</time></trkpt><trkpt lat="43.8254706" lon="11.0506922"><ele>36.00000000000001</ele><time>2026-04-26T13:49:41.113Z</time></trkpt><trkpt lat="43.8254198" lon="11.0507596"><ele>36.0</ele><time>2026-04-26T13:49:47.113Z</time></trkpt><trkpt lat="43.8253675" lon="11.0508295"><ele>36.00000000000001</ele><time>2026-04-26T13:49:52.113Z</time></trkpt><trkpt lat="43.825317" lon="11.0509032"><ele>36.0</ele><time>2026-04-26T13:49:57.113Z</time></trkpt><trkpt lat="43.8252638" lon="11.0509747"><ele>36.0</ele><time>2026-04-26T13:50:03.113Z</time></trkpt><trkpt lat="43.8252208" lon="11.0510456"><ele>36.0</ele><time>2026-04-26T13:50:08.112Z</time></trkpt><trkpt lat="43.82518" lon="11.0511147"><ele>36.0</ele><time>2026-04-26T13:50:13.113Z</time></trkpt><trkpt lat="43.8251329" lon="11.0511855"><ele>36.00000000000001</ele><time>2026-04-26T13:50:18.113Z</time></trkpt><trkpt lat="43.8250859" lon="11.0512506"><ele>36.0</ele><time>2026-04-26T13:50:23.113Z</time></trkpt><trkpt lat="43.825034" lon="11.0513273"><ele>35.85714285714286</ele><time>2026-04-26T13:50:29.113Z</time></trkpt><trkpt lat="43.8249791" lon="11.0513947"><ele>35.714285714285715</ele><time>2026-04-26T13:50:34.113Z</time></trkpt><trkpt lat="43.8249317" lon="11.0514622"><ele>35.57142857142857</ele><time>2026-04-26T13:50:39.113Z</time></trkpt><trkpt lat="43.8248835" lon="11.0515386"><ele>35.42857142857143</ele><time>2026-04-26T13:50:44.113Z</time></trkpt><trkpt lat="43.8248317" lon="11.0516091"><ele>35.285714285714285</ele><time>2026-04-26T13:50:50.113Z</time></trkpt><trkpt lat="43.8247882" lon="11.0516779"><ele>35.142857142857146</ele><time>2026-04-26T13:50:55.113Z</time></trkpt><trkpt lat="43.8247362" lon="11.0517512"><ele>35.0</ele><time>2026-04-26T13:51:01.113Z</time></trkpt><trkpt lat="43.824689" lon="11.0518158"><ele>34.857142857142854</ele><time>2026-04-26T13:51:06.113Z</time></trkpt><trkpt lat="43.8246479" lon="11.0518819"><ele>34.714285714285715</ele><time>2026-04-26T13:51:11.113Z</time></trkpt><trkpt lat="43.8246043" lon="11.051947"><ele>34.57142857142857</ele><time>2026-04-26T13:51:16.113Z</time></trkpt><trkpt lat="43.8245517" lon="11.0520069"><ele>34.42857142857143</ele><time>2026-04-26T13:51:21.113Z</time></trkpt><trkpt lat="43.824498" lon="11.0520872"><ele>34.285714285714285</ele><time>2026-04-26T13:51:26.113Z</time></trkpt><trkpt lat="43.8244551" lon="11.0521524"><ele>34.14285714285714</ele><time>2026-04-26T13:51:31.113Z</time></trkpt><trkpt lat="43.8244058" lon="11.0522095"><ele>34.0</ele><time>2026-04-26T13:51:36.113Z</time></trkpt><trkpt lat="43.8243529" lon="11.0522779"><ele>33.99999999999999</ele><time>2026-04-26T13:51:41.113Z</time></trkpt><trkpt lat="43.8243151" lon="11.0523507"><ele>34.0</ele><time>2026-04-26T13:51:46.113Z</time></trkpt><trkpt lat="43.8242627" lon="11.0524138"><ele>34.0</ele><time>2026-04-26T13:51:51.113Z</time></trkpt><trkpt lat="43.8242106" lon="11.05248"><ele>34.0</ele><time>2026-04-26T13:51:57.113Z</time></trkpt><trkpt lat="43.8241598" lon="11.0525476"><ele>34.0</ele><time>2026-04-26T13:52:02.113Z</time></trkpt><trkpt lat="43.8241214" lon="11.0526172"><ele>33.99999999999999</ele><time>2026-04-26T13:52:06.112Z</time></trkpt><trkpt lat="43.8240699" lon="11.0526815"><ele>34.0</ele><time>2026-04-26T13:52:11.113Z</time></trkpt><trkpt lat="43.8240204" lon="11.0527409"><ele>34.14285714285714</ele><time>2026-04-26T13:52:16.113Z</time></trkpt><trkpt lat="43.8239634" lon="11.0527854"><ele>34.285714285714285</ele><time>2026-04-26T13:52:21.113Z</time></trkpt><trkpt lat="43.8238986" lon="11.0527678"><ele>34.42857142857143</ele><time>2026-04-26T13:52:27.112Z</time></trkpt><trkpt lat="43.8238445" lon="11.0526932"><ele>34.57142857142857</ele><time>2026-04-26T13:52:33.113Z</time></trkpt><trkpt lat="43.8238074" lon="11.052612"><ele>34.714285714285715</ele><time>2026-04-26T13:52:38.113Z</time></trkpt><trkpt lat="43.8237627" lon="11.0525423"><ele>34.857142857142854</ele><time>2026-04-26T13:52:43.112Z</time></trkpt><trkpt lat="43.8237313" lon="11.0524639"><ele>35.0</ele><time>2026-04-26T13:52:48.113Z</time></trkpt><trkpt lat="43.8236909" lon="11.0523781"><ele>35.0</ele><time>2026-04-26T13:52:54.113Z</time></trkpt><trkpt lat="43.8236523" lon="11.0522989"><ele>35.0</ele><time>2026-04-26T13:52:59.113Z</time></trkpt><trkpt lat="43.8236156" lon="11.0522248"><ele>35.0</ele><time>2026-04-26T13:53:04.113Z</time></trkpt><trkpt lat="43.8235796" lon="11.0521462"><ele>35.0</ele><time>2026-04-26T13:53:09.113Z</time></trkpt><trkpt lat="43.8235431" lon="11.0520702"><ele>35.0</ele><time>2026-04-26T13:53:14.113Z</time></trkpt><trkpt lat="43.8235096" lon="11.0519963"><ele>35.0</ele><time>2026-04-26T13:53:19.112Z</time></trkpt><trkpt lat="43.8234702" lon="11.0519143"><ele>35.0</ele><time>2026-04-26T13:53:24.113Z</time></trkpt><trkpt lat="43.8234285" lon="11.0518366"><ele>35.285714285714285</ele><time>2026-04-26T13:53:29.113Z</time></trkpt><trkpt lat="43.8233825" lon="11.0517599"><ele>35.57142857142857</ele><time>2026-04-26T13:53:34.113Z</time></trkpt><trkpt lat="43.8233114" lon="11.0517207"><ele>35.85714285714286</ele><time>2026-04-26T13:53:39.113Z</time></trkpt><trkpt lat="43.8232479" lon="11.0517385"><ele>36.14285714285714</ele><time>2026-04-26T13:53:44.113Z</time></trkpt><trkpt lat="43.8231917" lon="11.0517931"><ele>36.42857142857143</ele><time>2026-04-26T13:53:49.113Z</time></trkpt><trkpt lat="43.8231392" lon="11.0518607"><ele>36.714285714285715</ele><time>2026-04-26T13:53:54.112Z</time></trkpt><trkpt lat="43.8230886" lon="11.0519287"><ele>37.0</ele><time>2026-04-26T13:53:59.113Z</time></trkpt><trkpt lat="43.8230378" lon="11.0519982"><ele>37.0</ele><time>2026-04-26T13:54:04.113Z</time></trkpt><trkpt lat="43.8229903" lon="11.0520749"><ele>37.0</ele><time>2026-04-26T13:54:09.113Z</time></trkpt><trkpt lat="43.822946" lon="11.0521439"><ele>37.0</ele><time>2026-04-26T13:54:14.112Z</time></trkpt><trkpt lat="43.8229178" lon="11.052222"><ele>37.0</ele><time>2026-04-26T13:54:18.113Z</time></trkpt><trkpt lat="43.8228775" lon="11.0523094"><ele>37.0</ele><time>2026-04-26T13:54:23.112Z</time></trkpt><trkpt lat="43.8228342" lon="11.0523786"><ele>37.0</ele><time>2026-04-26T13:54:27.112Z</time></trkpt><trkpt lat="43.8227798" lon="11.0524594"><ele>37.0</ele><time>2026-04-26T13:54:33.112Z</time></trkpt><trkpt lat="43.8227322" lon="11.0525226"><ele>36.85714285714286</ele><time>2026-04-26T13:54:38.112Z</time></trkpt><trkpt lat="43.8226756" lon="11.0525841"><ele>36.714285714285715</ele><time>2026-04-26T13:54:43.112Z</time></trkpt><trkpt lat="43.8226205" lon="11.0526545"><ele>36.57142857142857</ele><time>2026-04-26T13:54:48.112Z</time></trkpt><trkpt lat="43.822567" lon="11.052713"><ele>36.42857142857143</ele><time>2026-04-26T13:54:54.112Z</time></trkpt><trkpt lat="43.8225192" lon="11.0527714"><ele>36.285714285714285</ele><time>2026-04-26T13:54:58.111Z</time></trkpt><trkpt lat="43.822464" lon="11.0528404"><ele>36.142857142857146</ele><time>2026-04-26T13:55:03.112Z</time></trkpt><trkpt lat="43.822417" lon="11.0529154"><ele>36.0</ele><time>2026-04-26T13:55:08.112Z</time></trkpt><trkpt lat="43.8223807" lon="11.0529941"><ele>36.00000000000001</ele><time>2026-04-26T13:55:13.112Z</time></trkpt><trkpt lat="43.8223317" lon="11.0530705"><ele>36.0</ele><time>2026-04-26T13:55:18.112Z</time></trkpt><trkpt lat="43.8222764" lon="11.0531498"><ele>36.0</ele><time>2026-04-26T13:55:24.112Z</time></trkpt><trkpt lat="43.8222224" lon="11.0532155"><ele>36.0</ele><time>2026-04-26T13:55:29.112Z</time></trkpt><trkpt lat="43.8221721" lon="11.053281"><ele>36.0</ele><time>2026-04-26T13:55:34.112Z</time></trkpt><trkpt lat="43.8221332" lon="11.0533504"><ele>36.00000000000001</ele><time>2026-04-26T13:55:39.111Z</time></trkpt><trkpt lat="43.8220848" lon="11.0534149"><ele>36.0</ele><time>2026-04-26T13:55:44.112Z</time></trkpt><trkpt lat="43.8220428" lon="11.0535035"><ele>35.85714285714286</ele><time>2026-04-26T13:55:49.112Z</time></trkpt><trkpt lat="43.8220001" lon="11.053581"><ele>35.714285714285715</ele><time>2026-04-26T13:55:54.112Z</time></trkpt><trkpt lat="43.8219571" lon="11.0536458"><ele>35.57142857142857</ele><time>2026-04-26T13:55:59.112Z</time></trkpt><trkpt lat="43.8219194" lon="11.0537292"><ele>35.42857142857143</ele><time>2026-04-26T13:56:04.112Z</time></trkpt><trkpt lat="43.8218803" lon="11.0537984"><ele>35.285714285714285</ele><time>2026-04-26T13:56:08.112Z</time></trkpt><trkpt lat="43.8218419" lon="11.0538698"><ele>35.142857142857146</ele><time>2026-04-26T13:56:13.112Z</time></trkpt><trkpt lat="43.8217998" lon="11.0539368"><ele>35.0</ele><time>2026-04-26T13:56:18.112Z</time></trkpt><trkpt lat="43.8217554" lon="11.0540177"><ele>34.857142857142854</ele><time>2026-04-26T13:56:23.112Z</time></trkpt><trkpt lat="43.821713" lon="11.0540856"><ele>34.714285714285715</ele><time>2026-04-26T13:56:28.112Z</time></trkpt><trkpt lat="43.8216633" lon="11.0541604"><ele>34.57142857142857</ele><time>2026-04-26T13:56:33.112Z</time></trkpt><trkpt lat="43.8216239" lon="11.0542365"><ele>34.42857142857143</ele><time>2026-04-26T13:56:38.112Z</time></trkpt><trkpt lat="43.8215753" lon="11.0543195"><ele>34.285714285714285</ele><time>2026-04-26T13:56:44.112Z</time></trkpt><trkpt lat="43.8215331" lon="11.0543992"><ele>34.14285714285714</ele><time>2026-04-26T13:56:49.112Z</time></trkpt><trkpt lat="43.8214832" lon="11.054467"><ele>34.0</ele><time>2026-04-26T13:56:54.112Z</time></trkpt><trkpt lat="43.8214379" lon="11.0545294"><ele>33.99999999999999</ele><time>2026-04-26T13:56:59.112Z</time></trkpt><trkpt lat="43.8213952" lon="11.0546044"><ele>34.0</ele><time>2026-04-26T13:57:04.112Z</time></trkpt><trkpt lat="43.8213505" lon="11.0546849"><ele>34.0</ele><time>2026-04-26T13:57:09.112Z</time></trkpt><trkpt lat="43.8212995" lon="11.0547675"><ele>34.0</ele><time>2026-04-26T13:57:14.112Z</time></trkpt><trkpt lat="43.8212564" lon="11.0548483"><ele>34.0</ele><time>2026-04-26T13:57:19.112Z</time></trkpt><trkpt lat="43.8212189" lon="11.0549224"><ele>33.99999999999999</ele><time>2026-04-26T13:57:24.112Z</time></trkpt><trkpt lat="43.8211645" lon="11.0549998"><ele>34.0</ele><time>2026-04-26T13:57:30.112Z</time></trkpt><trkpt lat="43.8211229" lon="11.0550733"><ele>33.99999999999999</ele><time>2026-04-26T13:57:35.112Z</time></trkpt><trkpt lat="43.8210825" lon="11.0551523"><ele>34.0</ele><time>2026-04-26T13:57:40.112Z</time></trkpt><trkpt lat="43.8210349" lon="11.055214"><ele>34.0</ele><time>2026-04-26T13:57:45.111Z</time></trkpt><trkpt lat="43.8209883" lon="11.0553018"><ele>34.0</ele><time>2026-04-26T13:57:51.112Z</time></trkpt><trkpt lat="43.8209505" lon="11.0553737"><ele>34.0</ele><time>2026-04-26T13:57:56.112Z</time></trkpt><trkpt lat="43.8209177" lon="11.0554546"><ele>33.99999999999999</ele><time>2026-04-26T13:58:01.112Z</time></trkpt><trkpt lat="43.8208765" lon="11.0555316"><ele>34.0</ele><time>2026-04-26T13:58:06.112Z</time></trkpt><trkpt lat="43.8208306" lon="11.0556069"><ele>33.99999999999999</ele><time>2026-04-26T13:58:11.112Z</time></trkpt><trkpt lat="43.8207839" lon="11.0556811"><ele>34.0</ele><time>2026-04-26T13:58:16.112Z</time></trkpt><trkpt lat="43.8207378" lon="11.0557455"><ele>34.0</ele><time>2026-04-26T13:58:21.112Z</time></trkpt><trkpt lat="43.8206894" lon="11.0558186"><ele>34.0</ele><time>2026-04-26T13:58:26.112Z</time></trkpt><trkpt lat="43.8206459" lon="11.0559097"><ele>34.0</ele><time>2026-04-26T13:58:32.111Z</time></trkpt><trkpt lat="43.8206035" lon="11.0559854"><ele>33.99999999999999</ele><time>2026-04-26T13:58:37.112Z</time></trkpt><trkpt lat="43.8205665" lon="11.0560583"><ele>34.0</ele><time>2026-04-26T13:58:42.112Z</time></trkpt><trkpt lat="43.8205301" lon="11.0561338"><ele>33.99999999999999</ele><time>2026-04-26T13:58:47.112Z</time></trkpt><trkpt lat="43.8204852" lon="11.0562154"><ele>34.0</ele><time>2026-04-26T13:58:52.112Z</time></trkpt><trkpt lat="43.8204484" lon="11.0562899"><ele>34.0</ele><time>2026-04-26T13:58:57.111Z</time></trkpt><trkpt lat="43.8204138" lon="11.0563824"><ele>34.0</ele><time>2026-04-26T13:59:03.112Z</time></trkpt><trkpt lat="43.820377" lon="11.0564587"><ele>34.0</ele><time>2026-04-26T13:59:08.112Z</time></trkpt><trkpt lat="43.8203354" lon="11.0565295"><ele>33.99999999999999</ele><time>2026-04-26T13:59:13.112Z</time></trkpt><trkpt lat="43.8202962" lon="11.056612"><ele>34.0</ele><time>2026-04-26T13:59:18.112Z</time></trkpt><trkpt lat="43.8202609" lon="11.0566924"><ele>34.14285714285714</ele><time>2026-04-26T13:59:23.112Z</time></trkpt><trkpt lat="43.8202222" lon="11.056776"><ele>34.285714285714285</ele><time>2026-04-26T13:59:28.112Z</time></trkpt><trkpt lat="43.8201752" lon="11.0568409"><ele>34.42857142857143</ele><time>2026-04-26T13:59:33.112Z</time></trkpt><trkpt lat="43.8201374" lon="11.056911"><ele>34.57142857142857</ele><time>2026-04-26T13:59:38.112Z</time></trkpt><trkpt lat="43.8201077" lon="11.0569919"><ele>34.714285714285715</ele><time>2026-04-26T13:59:43.112Z</time></trkpt><trkpt lat="43.8200661" lon="11.0570651"><ele>34.857142857142854</ele><time>2026-04-26T13:59:48.112Z</time></trkpt><trkpt lat="43.820026" lon="11.0571424"><ele>35.0</ele><time>2026-04-26T13:59:53.112Z</time></trkpt><trkpt lat="43.8199868" lon="11.0572124"><ele>35.0</ele><time>2026-04-26T13:59:58.112Z</time></trkpt><trkpt lat="43.8199491" lon="11.0573"><ele>35.0</ele><time>2026-04-26T14:00:03.112Z</time></trkpt><trkpt lat="43.8198984" lon="11.0573745"><ele>35.0</ele><time>2026-04-26T14:00:08.112Z</time></trkpt><trkpt lat="43.8198621" lon="11.0574473"><ele>35.0</ele><time>2026-04-26T14:00:13.112Z</time></trkpt><trkpt lat="43.8198241" lon="11.0575237"><ele>35.0</ele><time>2026-04-26T14:00:18.112Z</time></trkpt><trkpt lat="43.8197806" lon="11.0575991"><ele>35.0</ele><time>2026-04-26T14:00:23.112Z</time></trkpt><trkpt lat="43.819744" lon="11.0576799"><ele>35.0</ele><time>2026-04-26T14:00:28.111Z</time></trkpt><trkpt lat="43.8196968" lon="11.0577661"><ele>35.0</ele><time>2026-04-26T14:00:33.112Z</time></trkpt><trkpt lat="43.8196574" lon="11.0578464"><ele>35.0</ele><time>2026-04-26T14:00:38.112Z</time></trkpt><trkpt lat="43.8196252" lon="11.0579276"><ele>35.0</ele><time>2026-04-26T14:00:43.112Z</time></trkpt><trkpt lat="43.819582" lon="11.0580148"><ele>35.0</ele><time>2026-04-26T14:00:49.112Z</time></trkpt><trkpt lat="43.8195451" lon="11.0580986"><ele>35.0</ele><time>2026-04-26T14:00:54.111Z</time></trkpt><trkpt lat="43.8195004" lon="11.0581678"><ele>35.0</ele><time>2026-04-26T14:00:59.112Z</time></trkpt><trkpt lat="43.8194577" lon="11.0582488"><ele>35.0</ele><time>2026-04-26T14:01:04.112Z</time></trkpt><trkpt lat="43.8194149" lon="11.0583284"><ele>35.714285714285715</ele><time>2026-04-26T14:01:09.112Z</time></trkpt><trkpt lat="43.8193741" lon="11.0584011"><ele>36.42857142857143</ele><time>2026-04-26T14:01:14.112Z</time></trkpt><trkpt lat="43.8193445" lon="11.058479"><ele>37.14285714285714</ele><time>2026-04-26T14:01:19.112Z</time></trkpt><trkpt lat="43.8193053" lon="11.0585494"><ele>37.85714285714286</ele><time>2026-04-26T14:01:24.112Z</time></trkpt><trkpt lat="43.8192675" lon="11.0586194"><ele>38.57142857142857</ele><time>2026-04-26T14:01:29.112Z</time></trkpt><trkpt lat="43.8192333" lon="11.0587023"><ele>39.285714285714285</ele><time>2026-04-26T14:01:34.112Z</time></trkpt><trkpt lat="43.8191886" lon="11.0587848"><ele>40.0</ele><time>2026-04-26T14:01:39.112Z</time></trkpt><trkpt lat="43.8191533" lon="11.0588735"><ele>40.0</ele><time>2026-04-26T14:01:44.112Z</time></trkpt><trkpt lat="43.8191153" lon="11.0589608"><ele>40.0</ele><time>2026-04-26T14:01:49.112Z</time></trkpt><trkpt lat="43.8190759" lon="11.059051"><ele>40.0</ele><time>2026-04-26T14:01:55.112Z</time></trkpt><trkpt lat="43.8190439" lon="11.0591468"><ele>40.0</ele><time>2026-04-26T14:01:59.112Z</time></trkpt><trkpt lat="43.8189795" lon="11.0591793"><ele>40.0</ele><time>2026-04-26T14:02:04.112Z</time></trkpt><trkpt lat="43.8189103" lon="11.0591444"><ele>40.0</ele><time>2026-04-26T14:02:10.112Z</time></trkpt><trkpt lat="43.8188453" lon="11.0591031"><ele>40.0</ele><time>2026-04-26T14:02:16.112Z</time></trkpt><trkpt lat="43.8187824" lon="11.0590649"><ele>40.42857142857143</ele><time>2026-04-26T14:02:20.844Z</time></trkpt><trkpt lat="43.8187135" lon="11.0590271"><ele>40.85714285714286</ele><time>2026-04-26T14:02:26.109Z</time></trkpt><trkpt lat="43.8186487" lon="11.0590079"><ele>41.28571428571429</ele><time>2026-04-26T14:02:31.06Z</time></trkpt><trkpt lat="43.8185856" lon="11.0590015"><ele>41.714285714285715</ele><time>2026-04-26T14:02:35.114Z</time></trkpt><trkpt lat="43.8185162" lon="11.0589681"><ele>42.142857142857146</ele><time>2026-04-26T14:02:40.026Z</time></trkpt><trkpt lat="43.8184391" lon="11.0589515"><ele>42.57142857142858</ele><time>2026-04-26T14:02:46.113Z</time></trkpt><trkpt lat="43.8183745" lon="11.0589457"><ele>43.0</ele><time>2026-04-26T14:02:51.032Z</time></trkpt><trkpt lat="43.8183044" lon="11.0589474"><ele>43.28571428571429</ele><time>2026-04-26T14:02:55.982Z</time></trkpt><trkpt lat="43.8182358" lon="11.0589533"><ele>43.57142857142857</ele><time>2026-04-26T14:03:01.032Z</time></trkpt><trkpt lat="43.8181668" lon="11.0589538"><ele>43.85714285714286</ele><time>2026-04-26T14:03:06.11Z</time></trkpt><trkpt lat="43.8180994" lon="11.0589633"><ele>44.142857142857146</ele><time>2026-04-26T14:03:11.033Z</time></trkpt><trkpt lat="43.8180316" lon="11.0589848"><ele>44.42857142857143</ele><time>2026-04-26T14:03:16.033Z</time></trkpt><trkpt lat="43.8179677" lon="11.0590112"><ele>44.714285714285715</ele><time>2026-04-26T14:03:20.033Z</time></trkpt><trkpt lat="43.8178933" lon="11.0590528"><ele>45.0</ele><time>2026-04-26T14:03:25.061Z</time></trkpt><trkpt lat="43.8178297" lon="11.059103"><ele>45.0</ele><time>2026-04-26T14:03:30.041Z</time></trkpt><trkpt lat="43.8177633" lon="11.0591153"><ele>45.0</ele><time>2026-04-26T14:03:36.112Z</time></trkpt><trkpt lat="43.8176899" lon="11.0591198"><ele>45.0</ele><time>2026-04-26T14:03:42.112Z</time></trkpt><trkpt lat="43.817593" lon="11.0590981"><ele>45.0</ele><time>2026-04-26T14:03:49.112Z</time></trkpt><trkpt lat="43.8175195" lon="11.0591071"><ele>45.0</ele><time>2026-04-26T14:03:53.112Z</time></trkpt><trkpt lat="43.8174528" lon="11.0590515"><ele>45.0</ele><time>2026-04-26T14:03:57.112Z</time></trkpt><trkpt lat="43.8173853" lon="11.0590272"><ele>45.285714285714285</ele><time>2026-04-26T14:04:03.111Z</time></trkpt><trkpt lat="43.8173122" lon="11.0590114"><ele>45.57142857142858</ele><time>2026-04-26T14:04:09.111Z</time></trkpt><trkpt lat="43.8172463" lon="11.0589886"><ele>45.85714285714286</ele><time>2026-04-26T14:04:16.065Z</time></trkpt><trkpt lat="43.8171758" lon="11.058969"><ele>46.14285714285714</ele><time>2026-04-26T14:04:20.02Z</time></trkpt><trkpt lat="43.81711" lon="11.0589483"><ele>46.42857142857143</ele><time>2026-04-26T14:04:25.047Z</time></trkpt><trkpt lat="43.8170498" lon="11.0588899"><ele>46.714285714285715</ele><time>2026-04-26T14:04:30.033Z</time></trkpt><trkpt lat="43.8169887" lon="11.0589167"><ele>47.0</ele><time>2026-04-26T14:04:40.033Z</time></trkpt><trkpt lat="43.8169231" lon="11.0589056"><ele>47.0</ele><time>2026-04-26T14:04:41.942Z</time></trkpt><trkpt lat="43.8168408" lon="11.0588915"><ele>47.0</ele><time>2026-04-26T14:04:45.033Z</time></trkpt><trkpt lat="43.8168" lon="11.0588153"><ele>47.0</ele><time>2026-04-26T14:04:48.061Z</time></trkpt><trkpt lat="43.8167409" lon="11.0587741"><ele>47.0</ele><time>2026-04-26T14:04:53.033Z</time></trkpt><trkpt lat="43.8166686" lon="11.0587437"><ele>47.0</ele><time>2026-04-26T14:04:59.07Z</time></trkpt><trkpt lat="43.8166057" lon="11.0587319"><ele>47.0</ele><time>2026-04-26T14:05:03.002Z</time></trkpt><trkpt lat="43.8165384" lon="11.058737"><ele>47.0</ele><time>2026-04-26T14:05:08.054Z</time></trkpt><trkpt lat="43.8164915" lon="11.0586747"><ele>47.0</ele><time>2026-04-26T14:05:12.033Z</time></trkpt><trkpt lat="43.8164786" lon="11.0585788"><ele>47.0</ele><time>2026-04-26T14:05:16.033Z</time></trkpt><trkpt lat="43.8164821" lon="11.0584865"><ele>47.0</ele><time>2026-04-26T14:05:20.033Z</time></trkpt><trkpt lat="43.8165018" lon="11.0583815"><ele>47.0</ele><time>2026-04-26T14:05:25.017Z</time></trkpt><trkpt lat="43.8165248" lon="11.0582941"><ele>47.0</ele><time>2026-04-26T14:05:29.033Z</time></trkpt><trkpt lat="43.8164908" lon="11.0582027"><ele>47.0</ele><time>2026-04-26T14:05:34.033Z</time></trkpt><trkpt lat="43.8164396" lon="11.0581501"><ele>47.0</ele><time>2026-04-26T14:05:37.987Z</time></trkpt><trkpt lat="43.8163716" lon="11.0581094"><ele>47.0</ele><time>2026-04-26T14:05:43.033Z</time></trkpt><trkpt lat="43.816308" lon="11.0580889"><ele>47.0</ele><time>2026-04-26T14:05:47.037Z</time></trkpt><trkpt lat="43.8162503" lon="11.0580384"><ele>47.0</ele><time>2026-04-26T14:05:52.033Z</time></trkpt><trkpt lat="43.8162072" lon="11.0579705"><ele>47.0</ele><time>2026-04-26T14:05:56.033Z</time></trkpt><trkpt lat="43.8161501" lon="11.0579029"><ele>47.0</ele><time>2026-04-26T14:06:01.033Z</time></trkpt><trkpt lat="43.8160932" lon="11.0578407"><ele>47.0</ele><time>2026-04-26T14:06:07.041Z</time></trkpt><trkpt lat="43.8160475" lon="11.0577658"><ele>47.0</ele><time>2026-04-26T14:06:12.033Z</time></trkpt><trkpt lat="43.8159865" lon="11.0576874"><ele>46.42857142857143</ele><time>2026-04-26T14:06:17.001Z</time></trkpt><trkpt lat="43.815942" lon="11.0576149"><ele>45.857142857142854</ele><time>2026-04-26T14:06:21.074Z</time></trkpt><trkpt lat="43.8158751" lon="11.0575548"><ele>45.28571428571429</ele><time>2026-04-26T14:06:26.033Z</time></trkpt><trkpt lat="43.8158219" lon="11.0574876"><ele>44.714285714285715</ele><time>2026-04-26T14:06:30.946Z</time></trkpt><trkpt lat="43.8157798" lon="11.0574199"><ele>44.142857142857146</ele><time>2026-04-26T14:06:36.033Z</time></trkpt><trkpt lat="43.815729" lon="11.0573513"><ele>43.57142857142858</ele><time>2026-04-26T14:06:41.033Z</time></trkpt><trkpt lat="43.8157479" lon="11.0572629"><ele>43.0</ele><time>2026-04-26T14:06:46.033Z</time></trkpt><trkpt lat="43.8157864" lon="11.0571911"><ele>43.00000000000001</ele><time>2026-04-26T14:06:49.742Z</time></trkpt><trkpt lat="43.815831" lon="11.0571198"><ele>43.0</ele><time>2026-04-26T14:06:56.033Z</time></trkpt><trkpt lat="43.8158068" lon="11.0570283"><ele>43.0</ele><time>2026-04-26T14:07:00.051Z</time></trkpt><trkpt lat="43.8157519" lon="11.0569704"><ele>43.0</ele><time>2026-04-26T14:07:04.947Z</time></trkpt><trkpt lat="43.8157322" lon="11.0568788"><ele>43.0</ele><time>2026-04-26T14:07:11.033Z</time></trkpt><trkpt lat="43.8156738" lon="11.0568264"><ele>43.00000000000001</ele><time>2026-04-26T14:07:15.986Z</time></trkpt><trkpt lat="43.8156136" lon="11.056768"><ele>43.0</ele><time>2026-04-26T14:07:21.041Z</time></trkpt><trkpt lat="43.8155639" lon="11.0567096"><ele>43.00000000000001</ele><time>2026-04-26T14:07:26.033Z</time></trkpt><trkpt lat="43.8155041" lon="11.0566616"><ele>43.0</ele><time>2026-04-26T14:07:31.033Z</time></trkpt><trkpt lat="43.8154735" lon="11.0565709"><ele>43.0</ele><time>2026-04-26T14:07:37.032Z</time></trkpt><trkpt lat="43.8154458" lon="11.0564773"><ele>43.0</ele><time>2026-04-26T14:07:44.033Z</time></trkpt><trkpt lat="43.8154352" lon="11.0563897"><ele>43.0</ele><time>2026-04-26T14:07:49.033Z</time></trkpt><trkpt lat="43.8154052" lon="11.0562941"><ele>43.00000000000001</ele><time>2026-04-26T14:07:54.033Z</time></trkpt><trkpt lat="43.8153783" lon="11.0562072"><ele>43.0</ele><time>2026-04-26T14:07:58.032Z</time></trkpt><trkpt lat="43.8153255" lon="11.0561444"><ele>43.28571428571429</ele><time>2026-04-26T14:08:02Z</time></trkpt><trkpt lat="43.815276" lon="11.0560899"><ele>43.57142857142857</ele><time>2026-04-26T14:08:06.033Z</time></trkpt><trkpt lat="43.8152213" lon="11.0560179"><ele>43.85714285714286</ele><time>2026-04-26T14:08:11.051Z</time></trkpt><trkpt lat="43.8151641" lon="11.0559693"><ele>44.142857142857146</ele><time>2026-04-26T14:08:14.986Z</time></trkpt><trkpt lat="43.815113" lon="11.055914"><ele>44.42857142857143</ele><time>2026-04-26T14:08:19.033Z</time></trkpt><trkpt lat="43.8150543" lon="11.0558542"><ele>44.714285714285715</ele><time>2026-04-26T14:08:24.968Z</time></trkpt><trkpt lat="43.8150099" lon="11.0557807"><ele>45.0</ele><time>2026-04-26T14:08:30.035Z</time></trkpt><trkpt lat="43.8149631" lon="11.055702"><ele>44.42857142857142</ele><time>2026-04-26T14:08:34.684Z</time></trkpt><trkpt lat="43.8149196" lon="11.055637"><ele>43.85714285714286</ele><time>2026-04-26T14:08:39.086Z</time></trkpt><trkpt lat="43.8148906" lon="11.0555587"><ele>43.285714285714285</ele><time>2026-04-26T14:08:44.078Z</time></trkpt><trkpt lat="43.8148476" lon="11.0554877"><ele>42.71428571428571</ele><time>2026-04-26T14:08:48.033Z</time></trkpt><trkpt lat="43.8147988" lon="11.0554112"><ele>42.14285714285714</ele><time>2026-04-26T14:08:53.041Z</time></trkpt><trkpt lat="43.8147408" lon="11.0553336"><ele>41.57142857142857</ele><time>2026-04-26T14:08:58.024Z</time></trkpt><trkpt lat="43.8146965" lon="11.0552587"><ele>41.0</ele><time>2026-04-26T14:09:04.062Z</time></trkpt><trkpt lat="43.8146372" lon="11.0552075"><ele>40.99999999999999</ele><time>2026-04-26T14:09:09.033Z</time></trkpt><trkpt lat="43.8146021" lon="11.0551344"><ele>41.0</ele><time>2026-04-26T14:09:16.075Z</time></trkpt><trkpt lat="43.8145378" lon="11.0551112"><ele>41.0</ele><time>2026-04-26T14:09:19.84Z</time></trkpt><trkpt lat="43.8144765" lon="11.0550535"><ele>41.0</ele><time>2026-04-26T14:09:25.041Z</time></trkpt><trkpt lat="43.8144329" lon="11.0549776"><ele>41.0</ele><time>2026-04-26T14:09:30.033Z</time></trkpt><trkpt lat="43.8144092" lon="11.0548966"><ele>40.99999999999999</ele><time>2026-04-26T14:09:34.047Z</time></trkpt><trkpt lat="43.8143525" lon="11.0548318"><ele>41.0</ele><time>2026-04-26T14:09:38.787Z</time></trkpt><trkpt lat="43.8143101" lon="11.0547445"><ele>40.99999999999999</ele><time>2026-04-26T14:09:44.103Z</time></trkpt><trkpt lat="43.8142539" lon="11.0547017"><ele>41.0</ele><time>2026-04-26T14:09:49.033Z</time></trkpt><trkpt lat="43.8141939" lon="11.0546415"><ele>41.0</ele><time>2026-04-26T14:09:53.886Z</time></trkpt><trkpt lat="43.8141326" lon="11.0545921"><ele>41.0</ele><time>2026-04-26T14:10:00.033Z</time></trkpt><trkpt lat="43.8140725" lon="11.0545379"><ele>41.0</ele><time>2026-04-26T14:10:05.043Z</time></trkpt><trkpt lat="43.8140157" lon="11.0544934"><ele>40.99999999999999</ele><time>2026-04-26T14:10:09.032Z</time></trkpt><trkpt lat="43.8139575" lon="11.0544401"><ele>41.0</ele><time>2026-04-26T14:10:14.033Z</time></trkpt><trkpt lat="43.8139111" lon="11.0543655"><ele>40.99999999999999</ele><time>2026-04-26T14:10:19.033Z</time></trkpt><trkpt lat="43.8138528" lon="11.0543183"><ele>41.0</ele><time>2026-04-26T14:10:24.033Z</time></trkpt><trkpt lat="43.8137841" lon="11.05429"><ele>41.0</ele><time>2026-04-26T14:10:29.032Z</time></trkpt><trkpt lat="43.8137341" lon="11.0542287"><ele>41.0</ele><time>2026-04-26T14:10:34.032Z</time></trkpt><trkpt lat="43.8136905" lon="11.0541657"><ele>41.0</ele><time>2026-04-26T14:10:38.06Z</time></trkpt><trkpt lat="43.8136335" lon="11.0541146"><ele>40.99999999999999</ele><time>2026-04-26T14:10:44.033Z</time></trkpt><trkpt lat="43.8135682" lon="11.0540981"><ele>41.0</ele><time>2026-04-26T14:10:49.067Z</time></trkpt><trkpt lat="43.8134987" lon="11.054095"><ele>40.71428571428571</ele><time>2026-04-26T14:10:57.091Z</time></trkpt><trkpt lat="43.8134792" lon="11.0540004"><ele>40.42857142857143</ele><time>2026-04-26T14:11:02.033Z</time></trkpt><trkpt lat="43.8135295" lon="11.0539378"><ele>40.14285714285714</ele><time>2026-04-26T14:11:06.033Z</time></trkpt><trkpt lat="43.8135678" lon="11.0538603"><ele>39.857142857142854</ele><time>2026-04-26T14:11:10.075Z</time></trkpt><trkpt lat="43.8135903" lon="11.0537617"><ele>39.57142857142857</ele><time>2026-04-26T14:11:15.033Z</time></trkpt><trkpt lat="43.8135983" lon="11.0536648"><ele>39.285714285714285</ele><time>2026-04-26T14:11:21.033Z</time></trkpt><trkpt lat="43.813569" lon="11.0535809"><ele>39.0</ele><time>2026-04-26T14:11:25.033Z</time></trkpt><trkpt lat="43.813534" lon="11.0535"><ele>39.0</ele><time>2026-04-26T14:11:30.033Z</time></trkpt><trkpt lat="43.8134912" lon="11.0534092"><ele>39.0</ele><time>2026-04-26T14:11:35.033Z</time></trkpt><trkpt lat="43.8134585" lon="11.0533246"><ele>39.0</ele><time>2026-04-26T14:11:40.033Z</time></trkpt><trkpt lat="43.8134111" lon="11.0532513"><ele>39.0</ele><time>2026-04-26T14:11:45.033Z</time></trkpt><trkpt lat="43.8133707" lon="11.0531764"><ele>39.0</ele><time>2026-04-26T14:11:50.033Z</time></trkpt><trkpt lat="43.8133427" lon="11.0530931"><ele>39.0</ele><time>2026-04-26T14:11:54.033Z</time></trkpt><trkpt lat="43.8133226" lon="11.0530002"><ele>39.0</ele><time>2026-04-26T14:11:58.103Z</time></trkpt><trkpt lat="43.8132906" lon="11.0529155"><ele>39.42857142857143</ele><time>2026-04-26T14:12:03.093Z</time></trkpt><trkpt lat="43.8132708" lon="11.0528146"><ele>39.857142857142854</ele><time>2026-04-26T14:12:09.039Z</time></trkpt><trkpt lat="43.8132338" lon="11.0527425"><ele>40.285714285714285</ele><time>2026-04-26T14:12:14.033Z</time></trkpt><trkpt lat="43.8132082" lon="11.0526487"><ele>40.714285714285715</ele><time>2026-04-26T14:12:20.047Z</time></trkpt><trkpt lat="43.8131488" lon="11.0526149"><ele>41.14285714285714</ele><time>2026-04-26T14:12:23.089Z</time></trkpt><trkpt lat="43.813089" lon="11.052549"><ele>41.57142857142857</ele><time>2026-04-26T14:12:28.032Z</time></trkpt><trkpt lat="43.8130589" lon="11.0524504"><ele>42.0</ele><time>2026-04-26T14:12:33.033Z</time></trkpt><trkpt lat="43.8130261" lon="11.0523619"><ele>42.0</ele><time>2026-04-26T14:12:38.033Z</time></trkpt><trkpt lat="43.8129948" lon="11.0522859"><ele>42.0</ele><time>2026-04-26T14:12:42.033Z</time></trkpt><trkpt lat="43.8129621" lon="11.0522064"><ele>42.0</ele><time>2026-04-26T14:12:47.033Z</time></trkpt><trkpt lat="43.8129161" lon="11.0521452"><ele>42.0</ele><time>2026-04-26T14:12:51.047Z</time></trkpt><trkpt lat="43.8128677" lon="11.0520589"><ele>42.0</ele><time>2026-04-26T14:12:57.043Z</time></trkpt><trkpt lat="43.8128274" lon="11.0519894"><ele>42.0</ele><time>2026-04-26T14:13:02.056Z</time></trkpt><trkpt lat="43.8127882" lon="11.0519136"><ele>42.0</ele><time>2026-04-26T14:13:07.033Z</time></trkpt><trkpt lat="43.8127376" lon="11.0518353"><ele>42.0</ele><time>2026-04-26T14:13:13.066Z</time></trkpt><trkpt lat="43.8126971" lon="11.0517536"><ele>42.0</ele><time>2026-04-26T14:13:18.032Z</time></trkpt><trkpt lat="43.8126662" lon="11.0516577"><ele>42.0</ele><time>2026-04-26T14:13:22.982Z</time></trkpt><trkpt lat="43.8126267" lon="11.0515778"><ele>42.0</ele><time>2026-04-26T14:13:28.033Z</time></trkpt><trkpt lat="43.8125909" lon="11.0515024"><ele>42.0</ele><time>2026-04-26T14:13:33.071Z</time></trkpt><trkpt lat="43.8125516" lon="11.0514221"><ele>42.0</ele><time>2026-04-26T14:13:37.033Z</time></trkpt><trkpt lat="43.8125088" lon="11.0513363"><ele>42.0</ele><time>2026-04-26T14:13:41.966Z</time></trkpt><trkpt lat="43.8124739" lon="11.0512566"><ele>42.0</ele><time>2026-04-26T14:13:48.043Z</time></trkpt><trkpt lat="43.812418" lon="11.051192"><ele>42.0</ele><time>2026-04-26T14:13:54.033Z</time></trkpt><trkpt lat="43.8123656" lon="11.0511371"><ele>42.0</ele><time>2026-04-26T14:14:01.048Z</time></trkpt><trkpt lat="43.8123269" lon="11.0510541"><ele>42.0</ele><time>2026-04-26T14:14:06.033Z</time></trkpt><trkpt lat="43.8122738" lon="11.0510015"><ele>42.0</ele><time>2026-04-26T14:14:09.961Z</time></trkpt><trkpt lat="43.8122341" lon="11.0509213"><ele>42.0</ele><time>2026-04-26T14:14:15.032Z</time></trkpt><trkpt lat="43.8121824" lon="11.0508611"><ele>42.0</ele><time>2026-04-26T14:14:19.033Z</time></trkpt><trkpt lat="43.8121313" lon="11.0507908"><ele>42.0</ele><time>2026-04-26T14:14:24.033Z</time></trkpt><trkpt lat="43.812098" lon="11.0507085"><ele>42.0</ele><time>2026-04-26T14:14:28.024Z</time></trkpt><trkpt lat="43.8120495" lon="11.0506404"><ele>42.0</ele><time>2026-04-26T14:14:33.033Z</time></trkpt><trkpt lat="43.8120145" lon="11.0505671"><ele>42.0</ele><time>2026-04-26T14:14:36.988Z</time></trkpt><trkpt lat="43.8119819" lon="11.0504736"><ele>42.0</ele><time>2026-04-26T14:14:43.033Z</time></trkpt><trkpt lat="43.8119569" lon="11.05039"><ele>42.0</ele><time>2026-04-26T14:14:48.036Z</time></trkpt><trkpt lat="43.8118957" lon="11.0503218"><ele>42.0</ele><time>2026-04-26T14:14:52.033Z</time></trkpt><trkpt lat="43.8118508" lon="11.0502445"><ele>42.42857142857143</ele><time>2026-04-26T14:14:57.033Z</time></trkpt><trkpt lat="43.8117927" lon="11.0501895"><ele>42.85714285714286</ele><time>2026-04-26T14:15:02.033Z</time></trkpt><trkpt lat="43.8117583" lon="11.0501073"><ele>43.285714285714285</ele><time>2026-04-26T14:15:07.033Z</time></trkpt><trkpt lat="43.8117096" lon="11.0500502"><ele>43.714285714285715</ele><time>2026-04-26T14:15:11.033Z</time></trkpt><trkpt lat="43.8116691" lon="11.0499659"><ele>44.142857142857146</ele><time>2026-04-26T14:15:19.033Z</time></trkpt><trkpt lat="43.8116233" lon="11.04989"><ele>44.57142857142857</ele><time>2026-04-26T14:15:24.005Z</time></trkpt><trkpt lat="43.8115617" lon="11.0498356"><ele>45.0</ele><time>2026-04-26T14:15:31.033Z</time></trkpt><trkpt lat="43.811495" lon="11.0498033"><ele>45.0</ele><time>2026-04-26T14:15:38.04Z</time></trkpt><trkpt lat="43.8114175" lon="11.0497761"><ele>45.0</ele><time>2026-04-26T14:15:44.033Z</time></trkpt></trkseg></trk></gpx>